createdAt,value
2022-12-25T00:00:52.774Z,2.17
2022-12-25T00:03:19.713Z,1.40
2022-12-25T00:05:46.536Z,1.60
2022-12-25T00:08:13.452Z,1.83
2022-12-25T00:10:45.318Z,1.50
2022-12-25T00:13:12.676Z,1.50
2022-12-25T00:15:41.684Z,1.73
2022-12-25T00:18:12.321Z,1.70
2022-12-25T00:20:39.021Z,1.20
2022-12-25T00:23:05.771Z,1.70
2022-12-25T00:25:32.567Z,1.30
2022-12-25T00:27:59.318Z,1.40
2022-12-25T00:30:26.065Z,1.33
2022-12-25T00:32:52.785Z,1.63
2022-12-25T00:35:19.508Z,1.30
2022-12-25T00:37:46.194Z,1.50
2022-12-25T00:40:13.244Z,1.40
2022-12-25T00:42:39.974Z,1.20
2022-12-25T00:45:07.213Z,1.53
2022-12-25T00:47:34.021Z,2.33
2022-12-25T00:50:00.817Z,1.30
2022-12-25T00:52:28.030Z,1.33
2022-12-25T00:54:54.759Z,1.20
2022-12-25T00:57:21.575Z,1.70
2022-12-25T00:59:48.331Z,1.60
2022-12-25T01:02:24.071Z,1.37
2022-12-25T01:04:53.131Z,1.63
2022-12-25T01:07:21.149Z,1.00
2022-12-25T01:10:07.453Z,1.10
2022-12-25T01:12:36.641Z,1.30
2022-12-25T01:15:05.058Z,1.17
2022-12-25T01:17:31.803Z,1.80
2022-12-25T01:19:58.545Z,1.47
2022-12-25T01:22:25.786Z,1.30
2022-12-25T01:24:52.604Z,1.57
2022-12-25T01:27:19.444Z,1.90
2022-12-25T01:29:46.808Z,1.90
2022-12-25T01:32:13.671Z,1.63
2022-12-25T01:34:40.475Z,1.60
2022-12-25T01:37:07.238Z,2.20
2022-12-25T01:39:34.282Z,1.67
2022-12-25T01:42:01.015Z,1.50
2022-12-25T01:44:36.814Z,1.60
2022-12-25T01:47:04.860Z,1.33
2022-12-25T01:49:34.343Z,1.73
2022-12-25T01:52:12.644Z,2.23
2022-12-25T01:54:45.664Z,2.40
2022-12-25T01:57:18.446Z,2.63
2022-12-25T01:59:46.382Z,1.50
2022-12-25T02:02:13.356Z,1.73
2022-12-25T02:04:57.696Z,1.40
2022-12-25T02:07:26.692Z,1.27
2022-12-25T02:09:54.334Z,1.20
2022-12-25T02:12:26.869Z,1.50
2022-12-25T02:15:04.634Z,2.60
2022-12-25T02:18:00.998Z,1.50
2022-12-25T02:20:44.137Z,1.37
2022-12-25T02:23:32.698Z,1.60
2022-12-25T02:26:08.354Z,2.20
2022-12-25T02:29:00.612Z,1.50
2022-12-25T02:31:49.250Z,1.30
2022-12-25T02:34:21.779Z,1.70
2022-12-25T02:37:09.869Z,2.50
2022-12-25T02:40:01.493Z,2.73
2022-12-25T02:43:05.243Z,1.87
2022-12-25T02:46:10.618Z,2.23
2022-12-25T02:49:01.128Z,1.10
2022-12-25T02:51:49.008Z,1.50
2022-12-25T02:54:38.739Z,1.10
2022-12-25T02:57:28.122Z,1.27
2022-12-25T03:00:17.480Z,1.10
2022-12-25T03:03:05.436Z,1.20
2022-12-25T03:05:55.637Z,1.47
2022-12-25T03:08:30.563Z,1.40
2022-12-25T03:11:22.663Z,1.20
2022-12-25T03:13:54.003Z,1.80
2022-12-25T03:16:39.884Z,1.60
2022-12-25T03:19:26.760Z,1.90
2022-12-25T03:22:14.503Z,1.23
2022-12-25T03:25:00.201Z,1.10
2022-12-25T03:27:31.706Z,1.23
2022-12-25T03:30:16.987Z,1.43
2022-12-25T03:32:49.336Z,0.77
2022-12-25T03:36:06.812Z,1.20
2022-12-25T03:39:18.157Z,1.27
2022-12-25T03:42:09.087Z,1.00
2022-12-25T03:45:26.516Z,0.70
2022-12-25T03:48:15.310Z,1.00
2022-12-25T03:51:12.865Z,0.70
2022-12-25T03:54:13.277Z,0.93
2022-12-25T03:56:59.188Z,1.10
2022-12-25T03:59:44.531Z,1.10
2022-12-25T04:02:30.311Z,0.87
2022-12-25T04:05:15.611Z,0.70
2022-12-25T04:08:00.926Z,0.77
2022-12-25T04:10:46.353Z,0.80
2022-12-25T04:13:31.652Z,0.70
2022-12-25T04:16:16.949Z,0.80
2022-12-25T04:19:02.460Z,0.83
2022-12-25T04:21:47.944Z,0.70
2022-12-25T04:24:33.548Z,0.80
2022-12-25T04:27:19.068Z,0.70
2022-12-25T04:30:04.512Z,0.80
2022-12-25T04:32:49.723Z,0.83
2022-12-25T04:35:35.102Z,0.80
2022-12-25T04:38:02.103Z,0.70
2022-12-25T04:40:28.897Z,1.33
2022-12-25T04:42:55.721Z,0.90
2022-12-25T04:45:22.499Z,1.00
2022-12-25T04:47:49.261Z,1.20
2022-12-25T04:50:16.054Z,0.97
2022-12-25T04:52:42.899Z,1.30
2022-12-25T04:55:11.559Z,0.90
2022-12-25T04:57:38.429Z,1.20
2022-12-25T05:00:06.635Z,1.53
2022-12-25T05:02:33.570Z,1.50
2022-12-25T05:05:00.621Z,1.57
2022-12-25T05:07:27.350Z,1.50
2022-12-25T05:09:54.115Z,1.50
2022-12-25T05:12:20.934Z,2.00
2022-12-25T05:14:47.745Z,1.80
2022-12-25T05:17:14.492Z,1.67
2022-12-25T05:19:41.252Z,1.80
2022-12-25T05:22:07.973Z,1.83
2022-12-25T05:24:34.706Z,2.17
2022-12-25T05:27:01.456Z,3.00
2022-12-25T05:29:28.285Z,2.17
2022-12-25T05:31:55.060Z,2.70
2022-12-25T05:34:21.908Z,2.13
2022-12-25T05:36:48.636Z,2.23
2022-12-25T05:39:15.381Z,1.90
2022-12-25T05:41:42.155Z,2.20
2022-12-25T05:44:08.896Z,2.30
2022-12-25T05:46:35.692Z,2.33
2022-12-25T05:49:02.489Z,1.93
2022-12-25T05:51:30.782Z,2.27
2022-12-25T05:53:57.832Z,1.90
2022-12-25T05:56:24.640Z,1.97
2022-12-25T05:58:51.501Z,2.60
2022-12-25T06:01:24.129Z,2.10
2022-12-25T06:03:51.102Z,2.13
2022-12-25T06:06:18.010Z,1.80
2022-12-25T06:08:44.778Z,1.30
2022-12-25T06:11:13.388Z,1.73
2022-12-25T06:13:40.627Z,1.60
2022-12-25T06:16:10.416Z,1.47
2022-12-25T06:18:46.713Z,1.70
2022-12-25T06:21:14.737Z,1.23
2022-12-25T06:23:41.771Z,1.70
2022-12-25T06:26:11.721Z,1.60
2022-12-25T06:28:38.528Z,1.70
2022-12-25T06:31:08.728Z,2.50
2022-12-25T06:33:36.559Z,3.23
2022-12-25T06:36:13.642Z,3.37
2022-12-25T06:38:40.906Z,4.07
2022-12-25T06:41:12.856Z,4.53
2022-12-25T06:43:39.620Z,5.53
2022-12-25T06:46:09.586Z,5.40
2022-12-25T06:48:38.062Z,5.40
2022-12-25T06:51:05.994Z,5.67
2022-12-25T06:53:39.852Z,6.17
2022-12-25T06:56:10.469Z,6.27
2022-12-25T06:58:37.261Z,6.33
2022-12-25T07:01:15.319Z,6.97
2022-12-25T07:03:44.165Z,6.33
2022-12-25T07:06:11.358Z,6.27
2022-12-25T07:08:38.201Z,6.00
2022-12-25T07:11:05.167Z,6.63
2022-12-25T07:13:31.943Z,5.90
2022-12-25T07:16:03.672Z,6.37
2022-12-25T07:18:31.823Z,6.87
2022-12-25T07:21:01.247Z,6.40
2022-12-25T07:23:27.993Z,5.97
2022-12-25T07:25:59.686Z,6.67
2022-12-25T07:28:27.297Z,7.13
2022-12-25T07:30:54.068Z,7.70
2022-12-25T07:33:21.279Z,7.10
2022-12-25T07:35:48.078Z,8.00
2022-12-25T07:38:14.881Z,7.43
2022-12-25T07:40:44.621Z,7.67
2022-12-25T07:43:11.410Z,7.23
2022-12-25T07:45:38.693Z,7.13
2022-12-25T07:48:08.415Z,7.30
2022-12-25T07:50:38.735Z,7.23
2022-12-25T07:53:05.675Z,6.80
2022-12-25T07:55:32.459Z,7.90
2022-12-25T07:57:59.182Z,8.17
2022-12-25T08:00:29.781Z,8.37
2022-12-25T08:02:56.841Z,6.83
2022-12-25T08:05:23.829Z,7.30
2022-12-25T08:07:57.949Z,7.13
2022-12-25T08:10:25.548Z,6.43
2022-12-25T08:12:56.163Z,7.47
2022-12-25T08:15:22.919Z,7.17
2022-12-25T08:17:49.806Z,6.90
2022-12-25T08:20:16.623Z,6.17
2022-12-25T08:22:43.390Z,6.70
2022-12-25T08:25:10.162Z,6.63
2022-12-25T08:27:36.955Z,6.60
2022-12-25T08:30:04.116Z,6.47
2022-12-25T08:32:33.615Z,7.03
2022-12-25T08:35:00.431Z,6.37
2022-12-25T08:37:30.144Z,6.77
2022-12-25T08:39:56.959Z,5.80
2022-12-25T08:42:23.877Z,6.83
2022-12-25T08:44:50.643Z,7.00
2022-12-25T08:47:17.410Z,6.73
2022-12-25T08:49:44.160Z,6.27
2022-12-25T08:52:11.155Z,6.77
2022-12-25T08:54:37.980Z,6.90
2022-12-25T08:57:04.971Z,6.13
2022-12-25T08:59:31.718Z,6.43
2022-12-25T09:01:58.539Z,5.90
2022-12-25T09:04:25.548Z,5.93
2022-12-25T09:06:52.284Z,5.60
2022-12-25T09:09:19.073Z,6.30
2022-12-25T09:11:45.812Z,6.43
2022-12-25T09:14:14.215Z,5.63
2022-12-25T09:16:40.955Z,5.53
2022-12-25T09:19:07.796Z,6.20
2022-12-25T09:21:36.802Z,6.57
2022-12-25T09:24:06.811Z,7.77
2022-12-25T09:26:33.585Z,8.30
2022-12-25T09:29:00.771Z,7.17
2022-12-25T09:31:27.570Z,5.93
2022-12-25T09:33:57.907Z,6.27
2022-12-25T09:36:25.683Z,5.20
2022-12-25T09:38:52.977Z,5.50
2022-12-25T09:41:31.520Z,5.00
2022-12-25T09:44:06.995Z,5.40
2022-12-25T09:46:45.321Z,4.40
2022-12-25T09:49:16.394Z,4.00
2022-12-25T09:51:45.718Z,4.60
2022-12-25T09:54:36.070Z,4.30
2022-12-25T09:57:03.495Z,3.80
2022-12-25T09:59:30.296Z,3.00
2022-12-25T10:02:10.659Z,3.27
2022-12-25T10:04:59.436Z,2.60
2022-12-25T10:07:44.831Z,2.40
2022-12-25T10:10:45.861Z,2.27
2022-12-25T10:13:34.773Z,2.40
2022-12-25T10:16:24.547Z,1.93
2022-12-25T10:19:16.562Z,3.67
2022-12-25T10:21:44.330Z,2.47
2022-12-25T10:24:33.649Z,1.90
2022-12-25T10:27:04.583Z,2.07
2022-12-25T10:29:34.712Z,2.10
2022-12-25T10:32:01.633Z,2.10
2022-12-25T10:34:28.904Z,2.20
2022-12-25T10:36:56.485Z,2.17
2022-12-25T10:39:25.695Z,2.07
2022-12-25T10:42:04.369Z,2.00
2022-12-25T10:44:32.310Z,2.07
2022-12-25T10:47:01.368Z,2.17
2022-12-25T10:49:37.766Z,2.20
2022-12-25T10:52:20.065Z,2.67
2022-12-25T10:54:46.851Z,2.23
2022-12-25T10:57:19.564Z,2.30
2022-12-25T10:59:47.505Z,2.03
2022-12-25T11:02:20.208Z,2.50
2022-12-25T11:04:48.082Z,2.63
2022-12-25T11:07:20.418Z,2.20
2022-12-25T11:10:04.637Z,2.33
2022-12-25T11:12:41.977Z,2.70
2022-12-25T11:15:48.202Z,2.37
2022-12-25T11:18:21.268Z,2.50
2022-12-25T11:20:49.852Z,2.83
2022-12-25T11:23:22.381Z,2.60
2022-12-25T11:26:07.051Z,2.70
2022-12-25T11:28:36.311Z,3.07
2022-12-25T11:31:07.856Z,2.80
2022-12-25T11:33:49.675Z,2.77
2022-12-25T11:36:20.379Z,2.83
2022-12-25T11:38:47.417Z,2.70
2022-12-25T11:41:20.539Z,2.87
2022-12-25T11:43:54.876Z,2.87
2022-12-25T11:46:31.193Z,4.57
2022-12-25T11:49:04.586Z,3.00
2022-12-25T11:51:36.908Z,4.70
2022-12-25T11:54:23.962Z,4.20
2022-12-25T11:56:51.109Z,3.70
2022-12-25T11:59:38.310Z,3.00
2022-12-25T12:02:32.151Z,3.50
2022-12-25T12:05:16.386Z,3.30
2022-12-25T12:08:01.790Z,3.10
2022-12-25T12:10:33.653Z,3.27
2022-12-25T12:13:48.475Z,3.30
2022-12-25T12:16:15.359Z,3.07
2022-12-25T12:18:48.090Z,3.50
2022-12-25T12:21:21.854Z,2.93
2022-12-25T12:24:06.639Z,3.40
2022-12-25T12:26:38.175Z,3.27
2022-12-25T12:29:07.747Z,3.17
2022-12-25T12:31:47.039Z,2.97
2022-12-25T12:34:30.391Z,2.87
2022-12-25T12:37:06.069Z,3.60
2022-12-25T12:39:39.699Z,3.93
2022-12-25T12:42:16.776Z,3.87
2022-12-25T12:44:44.998Z,3.30
2022-12-25T12:47:50.434Z,3.50
2022-12-25T12:50:49.361Z,3.00
2022-12-25T12:53:21.697Z,3.47
2022-12-25T12:55:48.618Z,2.70
2022-12-25T12:58:36.256Z,3.10
2022-12-25T13:01:35.028Z,2.90
2022-12-25T13:04:32.969Z,3.17
2022-12-25T13:07:35.921Z,3.17
2022-12-25T13:10:08.009Z,3.17
2022-12-25T13:12:35.094Z,2.80
2022-12-25T13:15:01.868Z,3.50
2022-12-25T13:17:29.104Z,4.20
2022-12-25T13:19:58.627Z,2.60
2022-12-25T13:22:35.503Z,2.20
2022-12-25T13:25:05.169Z,2.13
2022-12-25T13:27:33.461Z,3.00
2022-12-25T13:30:00.448Z,2.77
2022-12-25T13:32:33.513Z,2.63
2022-12-25T13:35:00.900Z,2.30
2022-12-25T13:37:30.700Z,2.50
2022-12-25T13:40:07.137Z,2.53
2022-12-25T13:42:37.311Z,2.13
2022-12-25T13:45:25.880Z,2.97
2022-12-25T13:47:55.695Z,2.43
2022-12-25T13:50:25.796Z,2.37
2022-12-25T13:52:55.923Z,1.90
2022-12-25T13:55:25.685Z,1.60
2022-12-25T13:58:01.128Z,1.83
2022-12-25T14:00:46.624Z,1.77
2022-12-25T14:03:36.711Z,2.00
2022-12-25T14:06:27.866Z,2.97
2022-12-25T14:08:56.401Z,2.23
2022-12-25T14:11:25.803Z,2.17
2022-12-25T14:13:56.743Z,2.40
2022-12-25T14:16:24.897Z,2.00
2022-12-25T14:18:54.422Z,1.90
2022-12-25T14:21:30.332Z,2.70
2022-12-25T14:23:57.500Z,1.50
2022-12-25T14:26:29.998Z,1.50
2022-12-25T14:29:09.189Z,1.50
2022-12-25T14:31:43.159Z,1.50
2022-12-25T14:34:21.379Z,1.30
2022-12-25T14:36:49.408Z,1.10
2022-12-25T14:39:33.358Z,1.10
2022-12-25T14:42:01.899Z,1.20
2022-12-25T14:44:35.993Z,1.20
2022-12-25T14:47:23.172Z,1.50
2022-12-25T14:49:51.040Z,2.17
2022-12-25T14:52:29.572Z,2.40
2022-12-25T14:54:58.511Z,2.37
2022-12-25T14:57:37.694Z,1.10
2022-12-25T15:00:09.114Z,1.53
2022-12-25T15:02:42.731Z,1.13
2022-12-25T15:05:30.157Z,1.43
2022-12-25T15:08:03.604Z,0.80
2022-12-25T15:13:20.519Z,1.30
2022-12-25T15:15:57.894Z,1.70
2022-12-25T15:18:28.064Z,1.60
2022-12-25T15:20:56.298Z,1.10
2022-12-25T15:23:25.328Z,1.20
2022-12-25T15:25:52.727Z,1.07
2022-12-25T15:28:20.230Z,0.80
2022-12-25T15:30:47.576Z,0.97
2022-12-25T15:33:16.710Z,1.33
2022-12-25T15:35:44.585Z,1.00
2022-12-25T15:38:13.258Z,1.17
2022-12-25T15:40:40.947Z,1.53
2022-12-25T15:43:14.593Z,2.53
2022-12-25T15:45:56.329Z,2.53
2022-12-25T15:48:23.210Z,2.60
2022-12-25T15:50:50.164Z,4.90
2022-12-25T15:53:16.984Z,4.37
2022-12-25T15:55:43.813Z,3.07
2022-12-25T15:58:15.106Z,3.03
2022-12-25T16:00:41.963Z,2.77
2022-12-25T16:03:08.922Z,1.67
2022-12-25T16:05:35.891Z,0.70
2022-12-25T16:08:02.740Z,0.90
2022-12-25T16:10:34.880Z,1.00
2022-12-25T16:13:05.127Z,1.00
2022-12-25T16:15:32.033Z,0.80
2022-12-25T16:17:58.894Z,1.10
2022-12-25T16:20:25.725Z,1.17
2022-12-25T16:22:52.545Z,1.03
2022-12-25T16:25:20.115Z,1.30
2022-12-25T16:27:47.194Z,1.30
2022-12-25T16:30:16.888Z,1.03
2022-12-25T16:32:45.396Z,1.30
2022-12-25T16:35:12.552Z,1.50
2022-12-25T16:37:39.529Z,1.60
2022-12-25T16:40:08.445Z,1.60
2022-12-25T16:42:35.825Z,1.30
2022-12-25T16:45:04.141Z,1.30
2022-12-25T16:47:31.172Z,1.40
2022-12-25T16:49:58.260Z,1.80
2022-12-25T16:52:25.085Z,1.57
2022-12-25T16:54:52.084Z,1.67
2022-12-25T16:57:18.863Z,2.13
2022-12-25T16:59:45.656Z,2.53
2022-12-25T17:02:17.066Z,1.57
2022-12-25T17:04:45.393Z,1.23
2022-12-25T17:07:14.485Z,1.60
2022-12-25T17:09:44.292Z,1.57
2022-12-25T17:12:11.595Z,2.60
2022-12-25T17:14:38.532Z,3.30
2022-12-25T17:17:05.517Z,2.80
2022-12-25T17:19:32.411Z,2.70
2022-12-25T17:21:59.877Z,1.90
2022-12-25T17:24:27.366Z,1.87
2022-12-25T17:26:54.403Z,1.70
2022-12-25T17:29:22.616Z,1.57
2022-12-25T17:31:50.896Z,1.40
2022-12-25T17:34:17.816Z,1.30
2022-12-25T17:36:44.701Z,1.60
2022-12-25T17:39:11.816Z,1.00
2022-12-25T17:41:38.802Z,1.20
2022-12-25T17:44:05.761Z,1.07
2022-12-25T17:46:32.905Z,1.50
2022-12-25T17:49:01.331Z,1.27
2022-12-25T17:51:29.932Z,1.40
2022-12-25T17:54:03.178Z,1.30
2022-12-25T17:56:31.012Z,1.80
2022-12-25T17:59:00.758Z,1.60
2022-12-25T18:01:29.977Z,1.57
2022-12-25T18:03:59.177Z,1.47
2022-12-25T18:06:27.899Z,1.80
2022-12-25T18:08:56.572Z,1.60
2022-12-25T18:11:27.644Z,1.07
2022-12-25T18:13:55.016Z,1.20
2022-12-25T18:16:24.380Z,0.97
2022-12-25T18:18:52.905Z,0.90
2022-12-25T18:21:21.571Z,1.10
2022-12-25T18:23:48.816Z,1.00
2022-12-25T18:26:16.132Z,1.20
2022-12-25T18:28:43.936Z,1.10
2022-12-25T18:31:16.949Z,0.90
2022-12-25T18:33:44.754Z,0.97
2022-12-25T18:36:14.441Z,3.50
2022-12-25T18:38:42.193Z,2.77
2022-12-25T18:41:10.370Z,3.07
2022-12-25T18:43:53.427Z,5.00
2022-12-25T18:46:24.818Z,6.13
2022-12-25T18:48:52.852Z,4.87
2022-12-25T18:51:19.742Z,5.80
2022-12-25T18:53:46.598Z,4.37
2022-12-25T18:56:17.358Z,4.90
2022-12-25T18:58:45.296Z,3.23
2022-12-25T19:01:14.883Z,4.93
2022-12-25T19:03:42.833Z,4.63
2022-12-25T19:06:15.835Z,3.50
2022-12-25T19:08:43.665Z,1.73
2022-12-25T19:11:10.648Z,1.90
2022-12-25T19:13:37.918Z,1.40
2022-12-25T19:16:05.192Z,2.60
2022-12-25T19:18:32.337Z,2.57
2022-12-25T19:21:06.960Z,1.90
2022-12-25T19:23:34.956Z,2.40
2022-12-25T19:26:05.592Z,1.97
2022-12-25T19:28:32.563Z,1.60
2022-12-25T19:31:00.618Z,1.80
2022-12-25T19:33:27.753Z,2.60
2022-12-25T19:35:58.739Z,2.70
2022-12-25T19:38:25.524Z,1.63
2022-12-25T19:41:01.664Z,2.07
2022-12-25T19:43:29.353Z,1.50
2022-12-25T19:45:56.891Z,1.80
2022-12-25T19:48:24.135Z,1.77
2022-12-25T19:50:51.156Z,1.57
2022-12-25T19:53:18.449Z,1.37
2022-12-25T19:55:45.550Z,1.87
2022-12-25T19:58:12.751Z,2.23
2022-12-25T20:00:40.477Z,1.90
2022-12-25T20:03:08.376Z,1.70
2022-12-25T20:05:35.459Z,1.60
2022-12-25T20:08:02.573Z,1.47
2022-12-25T20:10:29.443Z,2.40
2022-12-25T20:12:56.359Z,2.57
2022-12-25T20:15:23.389Z,2.03
2022-12-25T20:17:50.302Z,1.90
2022-12-25T20:20:17.294Z,1.50
2022-12-25T20:22:44.112Z,1.33
2022-12-25T20:25:11.449Z,1.80
2022-12-25T20:27:38.283Z,1.60
2022-12-25T20:30:05.643Z,1.77
2022-12-25T20:32:32.547Z,1.73
2022-12-25T20:34:59.414Z,1.47
2022-12-25T20:37:26.257Z,1.60
2022-12-25T20:39:53.102Z,1.20
2022-12-25T20:42:20.377Z,1.10
2022-12-25T20:44:47.634Z,1.57
2022-12-25T20:47:15.139Z,1.30
2022-12-25T20:49:42.002Z,1.30
2022-12-25T20:52:08.919Z,1.73
2022-12-25T20:54:35.939Z,1.50
2022-12-25T20:57:03.169Z,1.60
2022-12-25T20:59:36.941Z,1.40
2022-12-25T21:02:04.691Z,1.80
2022-12-25T21:04:31.772Z,1.47
2022-12-25T21:06:58.733Z,1.43
2022-12-25T21:09:25.667Z,1.73
2022-12-25T21:11:52.630Z,1.50
2022-12-25T21:14:19.512Z,1.33
2022-12-25T21:16:46.549Z,1.70
2022-12-25T21:19:14.135Z,1.43
2022-12-25T21:21:43.159Z,1.37
2022-12-25T21:24:10.905Z,1.50
2022-12-25T21:26:40.761Z,1.77
2022-12-25T21:29:09.958Z,1.20
2022-12-25T21:31:55.988Z,1.40
2022-12-25T21:34:23.115Z,1.50
2022-12-25T21:36:50.001Z,1.50
2022-12-25T21:39:17.316Z,1.43
2022-12-25T21:41:44.153Z,1.47
2022-12-25T21:44:11.843Z,1.40
2022-12-25T21:46:38.987Z,3.20
2022-12-25T21:49:05.975Z,1.90
2022-12-25T21:51:53.131Z,1.90
2022-12-25T21:54:22.176Z,2.33
2022-12-25T21:56:49.685Z,2.20
2022-12-25T21:59:18.712Z,2.00
2022-12-25T22:01:47.234Z,2.10
2022-12-25T22:04:15.797Z,2.53
2022-12-25T22:07:01.984Z,2.37
2022-12-25T22:09:29.361Z,1.80
2022-12-25T22:12:16.176Z,1.40
2022-12-25T22:14:55.525Z,1.63
2022-12-25T22:17:45.114Z,2.00
2022-12-25T22:20:37.940Z,2.10
2022-12-25T22:23:04.928Z,2.23
2022-12-25T22:25:33.043Z,2.40
2022-12-25T22:27:59.912Z,2.33
2022-12-25T22:30:28.902Z,2.83
2022-12-25T22:32:56.232Z,2.90
2022-12-25T22:35:23.228Z,2.80
2022-12-25T22:37:50.594Z,1.87
2022-12-25T22:40:19.972Z,1.60
2022-12-25T22:42:46.982Z,1.80
2022-12-25T22:45:14.250Z,1.70
2022-12-25T22:47:41.836Z,1.63
2022-12-25T22:50:09.778Z,1.37
2022-12-25T22:52:37.030Z,1.80
2022-12-25T22:55:05.532Z,1.73
2022-12-25T22:57:32.407Z,1.63
2022-12-25T22:59:59.349Z,2.13
2022-12-25T23:02:26.433Z,3.80
2022-12-25T23:04:53.496Z,3.40
2022-12-25T23:07:20.373Z,3.57
2022-12-25T23:09:47.392Z,2.43
2022-12-25T23:12:32.529Z,2.70
2022-12-25T23:14:59.566Z,3.03
2022-12-25T23:17:44.918Z,2.17
2022-12-25T23:20:33.381Z,1.70
2022-12-25T23:23:19.284Z,1.50
2022-12-25T23:26:05.007Z,1.97
2022-12-25T23:28:50.753Z,1.60
2022-12-25T23:31:18.164Z,1.83
2022-12-25T23:33:45.015Z,1.67
2022-12-25T23:36:11.828Z,1.80
2022-12-25T23:38:38.624Z,1.67
2022-12-25T23:41:05.687Z,1.70
2022-12-25T23:43:32.514Z,2.73
2022-12-25T23:45:59.522Z,2.47
2022-12-25T23:48:26.431Z,2.13
2022-12-25T23:50:53.352Z,2.00
2022-12-25T23:53:20.148Z,2.30
2022-12-25T23:55:53.347Z,1.70
2022-12-25T23:58:22.324Z,1.60
